West Nanticoke, Pennsylvania
Current Conditions -  °F | °C
As of 4:55 AM on Friday 26 Dec 2014 (Local Time) from KHZL Reporting Station
Clear Clear  
Wind Chill: 27°   Ceiling: Unl
Heat Index: 32°   Visibility: 10mi
Dew Point: 27°   Wind: 5mph
Humidity: 80%   Direction: 270°W
Pressure: 30.17"   Gusts: NA
Location:  41.1827°N, 76.0306°W
Report Text: KHZL 260955Z AUTO 27004KT 10SM CLR 00/M03 A3017 RMK AO2
Loading
Personal Weather Stations






























Interactive Weather Map New forecast layout! Learn more

10-Day Weather Forecast

Advertisements
Track Severe Weather on mobile